createdAt,value
2023-02-21T00:00:10.166Z,3.85
2023-02-21T00:02:36.573Z,3.35
2023-02-21T00:05:04.178Z,5.07
2023-02-21T00:07:30.578Z,4.07
2023-02-21T00:09:56.951Z,2.70
2023-02-21T00:12:23.389Z,2.05
2023-02-21T00:14:49.778Z,2.85
2023-02-21T00:17:16.180Z,1.25
2023-02-21T00:19:42.557Z,1.98
2023-02-21T00:22:08.965Z,3.45
2023-02-21T00:24:35.475Z,2.72
2023-02-21T00:27:02.250Z,3.75
2023-02-21T00:29:28.666Z,3.58
2023-02-21T00:31:55.074Z,2.92
2023-02-21T00:34:21.471Z,4.38
2023-02-21T00:36:47.914Z,2.78
2023-02-21T00:39:14.301Z,2.33
2023-02-21T00:41:40.700Z,3.38
2023-02-21T00:44:07.118Z,1.40
2023-02-21T00:46:33.528Z,4.95
2023-02-21T00:48:59.948Z,1.75
2023-02-21T00:51:26.325Z,3.60
2023-02-21T00:53:52.901Z,2.33
2023-02-21T00:56:19.291Z,2.47
2023-02-21T00:58:45.760Z,1.88
2023-02-21T01:01:12.346Z,0.90
2023-02-21T01:03:38.942Z,1.65
2023-02-21T01:06:09.364Z,4.35
2023-02-21T01:08:35.793Z,2.70
2023-02-21T01:11:02.188Z,3.00
2023-02-21T01:13:28.576Z,3.13
2023-02-21T01:15:55.084Z,1.83
2023-02-21T01:18:21.486Z,2.22
2023-02-21T01:20:47.892Z,1.60
2023-02-21T01:23:14.288Z,1.35
2023-02-21T01:25:40.699Z,1.90
2023-02-21T01:28:07.263Z,1.73
2023-02-21T01:30:33.724Z,0.88
2023-02-21T01:33:00.145Z,1.05
2023-02-21T01:35:26.549Z,3.20
2023-02-21T01:37:52.955Z,3.00
2023-02-21T01:40:19.408Z,2.03
2023-02-21T01:42:47.442Z,2.60
2023-02-21T01:45:22.884Z,2.75
2023-02-21T01:47:49.283Z,3.47
2023-02-21T01:50:25.238Z,2.35
2023-02-21T01:52:51.660Z,2.80
2023-02-21T01:55:18.062Z,2.88
2023-02-21T01:57:44.735Z,1.92
2023-02-21T02:00:12.574Z,3.33
2023-02-21T02:02:57.373Z,5.38
2023-02-21T02:05:23.844Z,4.00
2023-02-21T02:07:50.929Z,3.97
2023-02-21T02:10:17.332Z,3.97
2023-02-21T02:13:23.633Z,2.28
2023-02-21T02:15:49.982Z,4.28
2023-02-21T02:18:40.702Z,4.70
2023-02-21T02:21:42.804Z,5.28
2023-02-21T02:24:36.983Z,4.03
2023-02-21T02:27:24.453Z,3.72
2023-02-21T02:32:54.632Z,4.32
2023-02-21T02:35:28.102Z,2.80
2023-02-21T02:38:03.678Z,2.28
2023-02-21T02:40:35.328Z,2.90
2023-02-21T02:43:21.796Z,2.15
2023-02-21T02:45:58.479Z,2.83
2023-02-21T02:48:29.096Z,4.60
2023-02-21T02:50:55.509Z,2.42
2023-02-21T02:53:25.297Z,2.53
2023-02-21T02:58:18.620Z,1.80
2023-02-21T03:00:48.530Z,2.53
2023-02-21T03:03:28.899Z,2.45
2023-02-21T03:06:17.882Z,3.30
2023-02-21T03:09:17.242Z,2.00
2023-02-21T03:12:08.604Z,3.05
2023-02-21T03:14:41.408Z,2.50
2023-02-21T03:17:09.830Z,5.35
2023-02-21T03:19:38.848Z,3.88
2023-02-21T03:22:09.803Z,2.65
2023-02-21T03:24:36.187Z,3.63
2023-02-21T03:27:04.768Z,3.22
2023-02-21T03:29:32.015Z,2.28
2023-02-21T03:32:01.689Z,2.05
2023-02-21T03:34:28.081Z,3.22
2023-02-21T03:36:54.498Z,1.75
2023-02-21T03:39:20.922Z,2.95
2023-02-21T03:41:47.350Z,1.63
2023-02-21T03:44:13.830Z,2.45
2023-02-21T03:46:41.066Z,3.75
2023-02-21T03:49:07.555Z,3.55
2023-02-21T03:51:33.941Z,1.85
2023-02-21T03:54:00.349Z,3.50
2023-02-21T03:56:36.687Z,4.90
2023-02-21T03:59:07.863Z,1.90
2023-02-21T04:01:34.247Z,1.90
2023-02-21T04:04:00.682Z,2.28
2023-02-21T04:06:27.076Z,2.97
2023-02-21T04:08:53.469Z,2.38
2023-02-21T04:11:22.910Z,2.95
2023-02-21T04:13:49.289Z,2.97
2023-02-21T04:16:15.755Z,3.40
2023-02-21T04:18:42.159Z,1.83
2023-02-21T04:21:08.587Z,3.08
2023-02-21T04:23:34.969Z,1.73
2023-02-21T04:26:01.373Z,1.77
2023-02-21T04:28:27.768Z,2.25
2023-02-21T04:30:54.164Z,1.70
2023-02-21T04:33:20.564Z,1.33
2023-02-21T04:35:46.975Z,3.72
2023-02-21T04:38:13.368Z,5.80
2023-02-21T04:40:39.778Z,7.43
2023-02-21T04:43:06.191Z,7.57
2023-02-21T04:45:32.611Z,7.07
2023-02-21T04:47:59.044Z,8.63
2023-02-21T04:50:25.472Z,7.82
2023-02-21T04:52:51.886Z,9.35
2023-02-21T04:55:18.269Z,8.98
2023-02-21T04:57:44.678Z,5.85
2023-02-21T05:00:11.737Z,10.10
2023-02-21T05:02:38.162Z,4.88
2023-02-21T05:05:04.632Z,9.07
2023-02-21T05:07:31.066Z,8.80
2023-02-21T05:09:57.454Z,8.15
2023-02-21T05:12:23.895Z,6.57
2023-02-21T05:14:50.375Z,10.57
2023-02-21T05:17:16.803Z,6.60
2023-02-21T05:19:43.203Z,7.95
2023-02-21T05:22:09.628Z,4.05
2023-02-21T05:24:40.903Z,8.50
2023-02-21T05:27:07.308Z,8.88
2023-02-21T05:29:33.727Z,9.52
2023-02-21T05:32:00.491Z,10.05
2023-02-21T05:34:26.937Z,7.10
2023-02-21T05:36:53.356Z,5.55
2023-02-21T05:39:19.780Z,9.30
2023-02-21T05:41:47.727Z,14.13
2023-02-21T05:44:14.147Z,11.73
2023-02-21T05:46:40.544Z,10.27
2023-02-21T05:49:07.011Z,13.05
2023-02-21T05:51:37.399Z,6.07
2023-02-21T05:54:04.437Z,11.35
2023-02-21T05:56:30.857Z,10.70
2023-02-21T05:58:57.270Z,13.30
2023-02-21T06:01:23.665Z,13.00
2023-02-21T06:03:50.175Z,7.85
2023-02-21T06:06:16.673Z,11.55
2023-02-21T06:08:47.110Z,10.32
2023-02-21T06:11:14.068Z,11.80
2023-02-21T06:13:40.861Z,11.23
2023-02-21T06:16:07.420Z,16.45
2023-02-21T06:18:33.881Z,13.20
2023-02-21T06:21:00.270Z,11.82
2023-02-21T06:23:26.713Z,7.72
2023-02-21T06:25:53.103Z,12.30
2023-02-21T06:28:19.514Z,9.63
2023-02-21T06:30:46.056Z,11.77
2023-02-21T06:33:12.551Z,11.73
2023-02-21T06:35:38.951Z,10.43
2023-02-21T06:38:05.345Z,15.60
2023-02-21T06:40:31.754Z,9.07
2023-02-21T06:42:58.132Z,17.77
2023-02-21T06:45:24.546Z,13.60
2023-02-21T06:47:50.940Z,19.30
2023-02-21T06:50:17.470Z,17.30
2023-02-21T06:52:43.856Z,13.10
2023-02-21T06:55:11.318Z,10.88
2023-02-21T06:57:37.831Z,8.57
2023-02-21T07:00:05.493Z,7.43
2023-02-21T07:02:32.066Z,10.57
2023-02-21T07:04:58.520Z,10.88
2023-02-21T07:07:25.008Z,8.73
2023-02-21T07:09:51.951Z,14.35
2023-02-21T07:12:19.164Z,11.70
2023-02-21T07:14:47.900Z,8.75
2023-02-21T07:17:14.403Z,12.02
2023-02-21T07:19:40.833Z,9.52
2023-02-21T07:22:07.330Z,12.70
2023-02-21T07:24:36.526Z,15.27
2023-02-21T07:27:03.261Z,6.80
2023-02-21T07:29:29.681Z,11.23
2023-02-21T07:31:56.153Z,7.82
2023-02-21T07:34:22.592Z,10.73
2023-02-21T07:36:49.771Z,8.50
2023-02-21T07:39:16.161Z,10.55
2023-02-21T07:41:42.834Z,11.38
2023-02-21T07:44:09.545Z,6.43
2023-02-21T07:46:36.001Z,11.68
2023-02-21T07:49:02.408Z,9.73
2023-02-21T07:51:29.700Z,7.68
2023-02-21T07:53:56.249Z,8.95
2023-02-21T07:56:23.114Z,11.45
2023-02-21T07:58:49.532Z,14.55
2023-02-21T08:01:16.205Z,8.63
2023-02-21T08:03:44.023Z,12.82
2023-02-21T08:06:10.674Z,9.75
2023-02-21T08:08:37.118Z,11.15
2023-02-21T08:11:03.779Z,9.00
2023-02-21T08:13:30.194Z,8.07
2023-02-21T08:15:56.656Z,9.30
2023-02-21T08:18:23.583Z,10.10
2023-02-21T08:20:53.675Z,8.43
2023-02-21T08:23:20.388Z,11.55
2023-02-21T08:25:47.422Z,14.45
2023-02-21T08:28:14.215Z,10.35
2023-02-21T08:30:40.779Z,11.57
2023-02-21T08:33:07.420Z,13.13
2023-02-21T08:35:33.987Z,16.90
2023-02-21T08:38:00.445Z,7.93
2023-02-21T08:40:27.088Z,7.05
2023-02-21T08:42:54.842Z,9.73
2023-02-21T08:45:22.059Z,8.90
2023-02-21T08:47:48.605Z,10.32
2023-02-21T08:50:15.131Z,12.05
2023-02-21T08:52:41.575Z,8.05
2023-02-21T08:55:08.201Z,8.13
2023-02-21T08:57:34.629Z,9.10
2023-02-21T09:00:01.079Z,13.07
2023-02-21T09:02:27.617Z,10.75
2023-02-21T09:04:54.134Z,6.25
2023-02-21T09:07:21.469Z,8.75
2023-02-21T09:09:47.990Z,9.32
2023-02-21T09:12:14.649Z,13.27
2023-02-21T09:14:41.703Z,11.40
2023-02-21T09:17:08.900Z,11.13
2023-02-21T09:19:35.363Z,10.00
2023-02-21T09:22:01.920Z,14.43
2023-02-21T09:24:28.445Z,12.70
2023-02-21T09:26:55.422Z,8.73
2023-02-21T09:29:21.971Z,10.57
2023-02-21T09:31:49.162Z,8.85
2023-02-21T09:34:15.796Z,11.20
2023-02-21T09:36:42.502Z,9.38
2023-02-21T09:39:08.990Z,8.93
2023-02-21T09:41:35.662Z,13.55
2023-02-21T09:44:03.445Z,12.57
2023-02-21T09:46:33.021Z,9.20
2023-02-21T09:48:59.473Z,7.20
2023-02-21T09:51:26.265Z,18.80
2023-02-21T09:53:54.335Z,11.95
2023-02-21T09:56:32.959Z,13.57
2023-02-21T09:58:59.513Z,11.45
2023-02-21T10:01:51.854Z,8.30
2023-02-21T10:05:03.963Z,8.85
2023-02-21T10:07:39.162Z,7.55
2023-02-21T10:10:37.289Z,11.18
2023-02-21T10:13:28.350Z,10.85
2023-02-21T10:16:09.171Z,10.07
2023-02-21T10:18:48.794Z,11.07
2023-02-21T10:21:36.130Z,9.18
2023-02-21T10:24:03.649Z,14.27
2023-02-21T10:26:34.200Z,7.47
2023-02-21T10:29:00.635Z,9.68
2023-02-21T10:31:31.409Z,11.60
2023-02-21T10:33:57.875Z,10.82
2023-02-21T10:36:24.309Z,5.43
2023-02-21T10:38:56.208Z,6.65
2023-02-21T10:41:22.942Z,9.20
2023-02-21T10:44:00.106Z,12.63
2023-02-21T10:46:35.578Z,10.70
2023-02-21T10:49:21.851Z,10.80
2023-02-21T10:51:48.324Z,7.63
2023-02-21T10:54:18.787Z,8.77
2023-02-21T10:56:45.396Z,8.50
2023-02-21T10:59:11.764Z,8.55
2023-02-21T11:01:43.021Z,10.15
2023-02-21T11:04:15.375Z,7.50
2023-02-21T11:06:45.111Z,7.05
2023-02-21T11:12:20.969Z,7.03
2023-02-21T11:14:53.168Z,4.35
2023-02-21T11:17:23.770Z,9.85
2023-02-21T11:19:55.125Z,7.22
2023-02-21T11:22:34.800Z,14.25
2023-02-21T11:25:06.976Z,5.20
2023-02-21T11:27:35.063Z,8.45
2023-02-21T11:30:02.611Z,4.60
2023-02-21T11:32:34.371Z,5.72
2023-02-21T11:35:07.259Z,4.97
2023-02-21T11:37:33.857Z,7.72
2023-02-21T11:40:00.280Z,6.32
2023-02-21T11:42:31.625Z,4.55
2023-02-21T11:45:11.645Z,3.72
2023-02-21T11:47:44.492Z,6.63
2023-02-21T11:50:33.608Z,5.88
2023-02-21T11:53:18.454Z,5.88
2023-02-21T11:55:57.349Z,6.28
2023-02-21T11:58:31.946Z,4.70
2023-02-21T12:01:07.519Z,6.38
2023-02-21T12:03:43.901Z,5.65
2023-02-21T12:06:54.980Z,3.28
2023-02-21T12:09:24.391Z,3.88
2023-02-21T12:12:12.325Z,2.67
2023-02-21T12:14:53.881Z,6.18
2023-02-21T12:20:44.096Z,3.85
2023-02-21T12:26:14.097Z,3.75
2023-02-21T12:29:01.706Z,3.88
2023-02-21T12:31:31.135Z,3.50
2023-02-21T12:34:12.553Z,4.60
2023-02-21T12:37:06.617Z,3.45
2023-02-21T12:39:45.119Z,4.70
2023-02-21T12:42:38.168Z,3.00
2023-02-21T12:45:07.634Z,2.35
2023-02-21T12:47:43.020Z,4.40
2023-02-21T12:50:18.556Z,3.72
2023-02-21T12:52:59.186Z,4.50
2023-02-21T12:55:26.717Z,3.78
2023-02-21T12:57:54.295Z,4.60
2023-02-21T13:00:40.949Z,4.45
2023-02-21T13:03:37.010Z,3.00
2023-02-21T13:06:16.512Z,5.65
2023-02-21T13:09:19.872Z,4.95
2023-02-21T13:11:49.196Z,6.00
2023-02-21T13:14:20.680Z,4.70
2023-02-21T13:16:47.065Z,4.60
2023-02-21T13:19:13.692Z,6.97
2023-02-21T13:21:52.234Z,6.18
2023-02-21T13:25:15.926Z,6.95
2023-02-21T13:28:00.190Z,3.38
2023-02-21T13:30:32.382Z,3.40
2023-02-21T13:32:59.767Z,5.78
2023-02-21T13:35:30.254Z,2.88
2023-02-21T13:37:56.669Z,4.65
2023-02-21T13:40:44.841Z,6.95
2023-02-21T13:43:13.837Z,4.63
2023-02-21T13:45:40.274Z,4.38
2023-02-21T13:48:06.556Z,3.85
2023-02-21T13:50:39.188Z,4.03
2023-02-21T13:53:08.558Z,4.28
2023-02-21T13:55:35.921Z,5.82
2023-02-21T13:58:02.188Z,5.85
2023-02-21T14:00:45.667Z,5.68
2023-02-21T14:03:11.998Z,7.70
2023-02-21T14:05:44.347Z,3.65
2023-02-21T14:08:28.345Z,5.78
2023-02-21T14:11:41.143Z,3.83
2023-02-21T14:14:27.818Z,5.53
2023-02-21T14:17:02.744Z,2.42
2023-02-21T14:19:33.454Z,8.45
2023-02-21T14:22:04.735Z,5.13
2023-02-21T14:24:32.971Z,5.47
2023-02-21T14:27:02.420Z,5.55
2023-02-21T14:29:34.384Z,2.38
2023-02-21T14:32:00.797Z,5.30
2023-02-21T14:34:32.328Z,4.72
2023-02-21T14:37:02.551Z,3.38
2023-02-21T14:39:36.760Z,3.50
2023-02-21T14:42:06.017Z,4.60
2023-02-21T14:44:55.204Z,6.97
2023-02-21T14:47:33.977Z,5.80
2023-02-21T14:50:12.866Z,2.47
2023-02-21T14:52:46.478Z,2.63
2023-02-21T14:55:24.009Z,5.03
2023-02-21T14:58:10.343Z,6.93
2023-02-21T15:00:51.834Z,5.80
2023-02-21T15:08:30.481Z,3.53
2023-02-21T15:10:59.697Z,7.15
2023-02-21T15:13:28.333Z,2.60
2023-02-21T15:15:58.055Z,3.80
2023-02-21T15:21:10.194Z,2.42
2023-02-21T15:23:40.866Z,3.53
2023-02-21T15:26:29.835Z,2.83
2023-02-21T15:29:08.967Z,2.13
2023-02-21T15:31:37.030Z,2.15
2023-02-21T15:34:05.138Z,5.88
2023-02-21T15:36:31.517Z,5.72
2023-02-21T15:39:08.848Z,4.93
2023-02-21T15:41:45.456Z,4.97
2023-02-21T15:44:27.315Z,3.72
2023-02-21T15:46:58.788Z,5.38
2023-02-21T15:49:26.248Z,0.98
2023-02-21T15:51:52.878Z,2.08
2023-02-21T15:54:28.508Z,4.80
2023-02-21T15:59:31.888Z,2.72
2023-02-21T16:02:20.778Z,3.30
2023-02-21T16:04:48.166Z,3.03
2023-02-21T16:07:28.090Z,5.72
2023-02-21T16:10:05.832Z,5.18
2023-02-21T16:12:38.225Z,4.05
2023-02-21T16:15:19.038Z,4.25
2023-02-21T16:17:45.762Z,5.05
2023-02-21T16:20:12.055Z,6.97
2023-02-21T16:22:59.541Z,4.72
2023-02-21T16:25:25.628Z,5.65
2023-02-21T16:27:56.529Z,4.43
2023-02-21T16:30:24.783Z,6.57
2023-02-21T16:32:52.155Z,3.60
2023-02-21T16:35:22.928Z,6.43
2023-02-21T16:37:50.554Z,4.03
2023-02-21T16:40:22.183Z,4.95
2023-02-21T16:42:49.095Z,6.13
2023-02-21T16:45:15.543Z,4.22
2023-02-21T16:47:41.953Z,5.10
2023-02-21T16:50:21.789Z,2.75
2023-02-21T16:52:48.274Z,2.90
2023-02-21T16:55:18.379Z,6.55
2023-02-21T16:57:48.832Z,7.15
2023-02-21T17:00:16.608Z,4.32
2023-02-21T17:02:43.031Z,4.20
2023-02-21T17:05:09.450Z,2.88
2023-02-21T17:07:35.860Z,7.80
2023-02-21T17:10:02.253Z,8.13
2023-02-21T17:12:28.678Z,5.72
2023-02-21T17:14:55.054Z,7.07
2023-02-21T17:17:21.503Z,5.55
2023-02-21T17:19:47.956Z,8.00
2023-02-21T17:22:14.410Z,2.80
2023-02-21T17:24:41.828Z,7.22
2023-02-21T17:27:08.302Z,3.85
2023-02-21T17:29:34.772Z,2.83
2023-02-21T17:32:01.157Z,8.95
2023-02-21T17:34:27.591Z,7.00
2023-02-21T17:36:54.012Z,5.38
2023-02-21T17:39:20.674Z,6.10
2023-02-21T17:41:47.905Z,6.03
2023-02-21T17:44:15.504Z,5.00
2023-02-21T17:46:49.263Z,9.95
2023-02-21T17:49:20.114Z,7.45
2023-02-21T17:51:46.561Z,6.40
2023-02-21T17:54:14.072Z,7.95
2023-02-21T17:56:40.500Z,5.85
2023-02-21T17:59:06.944Z,4.80
2023-02-21T18:01:33.361Z,8.32
2023-02-21T18:03:59.777Z,8.77
2023-02-21T18:06:26.156Z,7.25
2023-02-21T18:08:55.352Z,8.30
2023-02-21T18:11:22.283Z,8.00
2023-02-21T18:13:49.138Z,8.40
2023-02-21T18:16:15.590Z,7.88
2023-02-21T18:18:42.094Z,7.15
2023-02-21T18:21:09.284Z,7.82
2023-02-21T18:23:35.769Z,6.90
2023-02-21T18:26:02.362Z,7.65
2023-02-21T18:28:29.054Z,9.30
2023-02-21T18:30:55.622Z,9.75
2023-02-21T18:33:23.188Z,7.40
2023-02-21T18:35:49.692Z,9.48
2023-02-21T18:38:16.160Z,9.85
2023-02-21T18:40:42.642Z,10.07
2023-02-21T18:43:24.057Z,8.45
2023-02-21T18:45:51.408Z,10.25
2023-02-21T18:48:17.908Z,9.35
2023-02-21T18:50:44.753Z,11.27
2023-02-21T18:53:11.328Z,9.65
2023-02-21T18:55:38.158Z,11.57
2023-02-21T18:58:05.170Z,13.10
2023-02-21T19:00:31.703Z,11.90
2023-02-21T19:02:58.939Z,10.80
2023-02-21T19:05:26.963Z,12.10
2023-02-21T19:07:53.729Z,10.18
2023-02-21T19:10:22.692Z,15.70
2023-02-21T19:12:50.410Z,13.35
2023-02-21T19:15:16.972Z,14.95
2023-02-21T19:17:43.808Z,13.40
2023-02-21T19:20:11.381Z,15.45
2023-02-21T19:22:37.909Z,14.65
2023-02-21T19:25:04.812Z,14.77
2023-02-21T19:27:31.418Z,15.75
2023-02-21T19:29:57.948Z,14.82
2023-02-21T19:32:24.450Z,18.67
2023-02-21T19:34:50.960Z,15.50
2023-02-21T19:37:17.429Z,18.95
2023-02-21T19:39:43.864Z,16.05
2023-02-21T19:42:10.339Z,14.65
2023-02-21T19:44:36.915Z,16.95
2023-02-21T19:47:03.692Z,16.02
2023-02-21T19:49:30.103Z,17.00
2023-02-21T19:51:58.171Z,17.00
2023-02-21T19:54:24.708Z,19.20
2023-02-21T19:56:51.195Z,19.17
2023-02-21T19:59:17.893Z,18.63
2023-02-21T20:01:44.389Z,21.23
2023-02-21T20:04:11.264Z,19.17
2023-02-21T20:06:37.789Z,24.10
2023-02-21T20:09:05.476Z,21.60
2023-02-21T20:11:32.036Z,18.20
2023-02-21T20:13:58.542Z,21.85
2023-02-21T20:16:25.126Z,20.05
2023-02-21T20:18:51.734Z,22.83
2023-02-21T20:21:22.729Z,26.10
2023-02-21T20:23:49.167Z,21.05
2023-02-21T20:26:15.696Z,21.55
2023-02-21T20:28:42.223Z,22.65
2023-02-21T20:31:08.740Z,23.58
2023-02-21T20:33:38.245Z,21.63
2023-02-21T20:36:05.067Z,19.05
2023-02-21T20:38:31.492Z,21.05
2023-02-21T20:40:58.129Z,19.23
2023-02-21T20:43:24.630Z,21.50
2023-02-21T20:45:51.470Z,23.42
2023-02-21T20:48:18.100Z,20.52
2023-02-21T20:50:46.093Z,26.02
2023-02-21T20:53:12.829Z,22.73
2023-02-21T20:55:39.225Z,24.25
2023-02-21T20:58:05.681Z,21.02
2023-02-21T21:00:33.754Z,20.05
2023-02-21T21:03:00.158Z,22.73
2023-02-21T21:05:26.575Z,22.33
2023-02-21T21:07:52.994Z,21.00
2023-02-21T21:10:19.419Z,20.75
2023-02-21T21:12:45.837Z,23.50
2023-02-21T21:15:13.481Z,18.40
2023-02-21T21:17:39.931Z,22.67
2023-02-21T21:20:06.813Z,21.10
2023-02-21T21:22:33.212Z,20.80
2023-02-21T21:24:59.636Z,21.88
2023-02-21T21:27:26.088Z,21.90
2023-02-21T21:29:52.519Z,15.88
2023-02-21T21:32:20.401Z,17.33
2023-02-21T21:34:49.348Z,21.30
2023-02-21T21:37:16.871Z,18.55
2023-02-21T21:39:47.362Z,15.02
2023-02-21T21:42:13.767Z,19.98
2023-02-21T21:44:40.501Z,13.43
2023-02-21T21:47:06.887Z,16.85
2023-02-21T21:49:33.317Z,13.95
2023-02-21T21:51:59.722Z,14.80
2023-02-21T21:54:26.529Z,16.02
2023-02-21T21:56:53.798Z,16.67
2023-02-21T21:59:20.252Z,16.90
2023-02-21T22:01:47.288Z,13.65
2023-02-21T22:04:13.872Z,16.33
2023-02-21T22:06:40.936Z,12.75
2023-02-21T22:09:07.746Z,13.40
2023-02-21T22:11:34.556Z,13.15
2023-02-21T22:14:01.057Z,15.75
2023-02-21T22:16:38.263Z,11.00
2023-02-21T22:19:04.743Z,11.43
2023-02-21T22:21:31.176Z,14.43
2023-02-21T22:23:57.809Z,11.70
2023-02-21T22:26:25.208Z,20.05
2023-02-21T22:28:51.660Z,15.10
2023-02-21T22:31:18.555Z,16.13
2023-02-21T22:33:45.330Z,17.15
2023-02-21T22:36:12.612Z,20.23
2023-02-21T22:38:40.900Z,16.88
2023-02-21T22:41:07.403Z,23.08
2023-02-21T22:43:33.858Z,18.25
2023-02-21T22:46:00.259Z,18.98
2023-02-21T22:48:26.654Z,24.77
2023-02-21T22:50:53.101Z,19.95
2023-02-21T22:53:19.485Z,19.95
2023-02-21T22:55:45.909Z,22.85
2023-02-21T22:58:12.332Z,18.70
2023-02-21T23:00:38.786Z,22.60
2023-02-21T23:03:07.176Z,19.73
2023-02-21T23:05:33.581Z,22.02
2023-02-21T23:07:59.983Z,21.20
2023-02-21T23:10:27.683Z,18.67
2023-02-21T23:12:55.707Z,29.60
2023-02-21T23:15:22.173Z,21.50
2023-02-21T23:17:49.272Z,23.55
2023-02-21T23:20:21.080Z,29.60
2023-02-21T23:22:51.982Z,21.85
2023-02-21T23:25:20.318Z,27.05
2023-02-21T23:27:47.920Z,25.15
2023-02-21T23:30:15.444Z,22.55
2023-02-21T23:32:45.635Z,23.15
2023-02-21T23:35:12.301Z,22.52
2023-02-21T23:37:38.722Z,25.23
2023-02-21T23:40:05.476Z,31.52
2023-02-21T23:42:31.907Z,29.42
2023-02-21T23:44:58.304Z,24.10
2023-02-21T23:47:24.710Z,30.77
2023-02-21T23:49:51.146Z,29.38
2023-02-21T23:52:17.545Z,28.13
2023-02-21T23:54:43.961Z,22.58
2023-02-21T23:57:10.350Z,24.02
2023-02-21T23:59:36.759Z,24.38
